Time;durP1;ratioP1;P1;durP2;ratioP2;P2;SDS_P1;SDS_P2;PMS_P1;PMS_P2;Temp;Humidity;BMP_temperature;BMP_pressure;BME280_temperature;BME280_humidity;BME280_pressure;Samples;Min_cycle;Max_cycle;Signal;HPM_P1;HPM_P2
2021/05/13 00:00:26;;;;;;;;;;;;;;;26.09;32.38;100070.41;5058200;28;776;-35
2021/05/13 00:02:51;;;;;;;;;;;;;;;26.10;32.40;100065.84;5058060;28;799;-40
2021/05/13 00:05:16;;;;;;;;;;;;;;;26.11;32.32;100070.25;5058212;28;1894;-35
2021/05/13 00:07:41;;;;;;;;;;;;;;;26.09;32.30;100074.97;5057852;28;809;-37
2021/05/13 00:10:07;;;;;;;;;;;;;;;26.07;32.39;100075.19;5057869;28;775;-36
2021/05/13 00:12:55;;;;;;;;;;;;;;;26.12;32.21;100078.13;5057805;28;959;-41
2021/05/13 00:15:24;;;;;;;;;;;;;;;26.13;32.13;100063.63;5070236;28;847;-40
2021/05/13 00:17:49;;;;;;;;;;;;;;;26.14;32.09;100062.56;5058044;28;772;-36
2021/05/13 00:20:16;;;;;;;;;;;;;;;26.12;32.21;100058.41;5057817;28;1108;-38
2021/05/13 00:22:42;;;;;;;;;;;;;;;26.15;32.07;100040.00;5057447;28;989;-40
2021/05/13 00:25:07;;;;;;;;;;;;;;;26.14;32.09;100037.50;5057332;28;1906;-35
2021/05/13 00:27:33;;;;;;;;;;;;;;;26.15;32.07;100034.63;5057505;28;971;-36
2021/05/13 00:29:58;;;;;;;;;;;;;;;26.16;32.15;100040.81;5057208;28;775;-35
2021/05/13 00:32:23;;;;;;;;;;;;;;;26.18;32.23;100041.47;5057545;28;826;-40
2021/05/13 00:34:48;;;;;;;;;;;;;;;26.19;32.11;100032.38;5057684;28;847;-41
2021/05/13 00:37:14;;;;;;;;;;;;;;;26.14;32.44;100034.81;5045031;28;1210;-36
2021/05/13 00:39:39;;;;;;;;;;;;;;;26.18;32.19;100036.06;5037891;28;867;-35
2021/05/13 00:42:04;;;;;;;;;;;;;;;26.17;32.31;100046.00;5046291;28;959;-37
2021/05/13 00:44:32;;;;;;;;;;;;;;;26.11;32.38;100044.09;5038566;28;1898;-41
2021/05/13 00:46:57;;;;;;;;;;;;;;;26.18;32.21;100046.84;5057747;28;825;-41
2021/05/13 00:49:23;;;;;;;;;;;;;;;26.17;32.15;100048.72;5057368;28;871;-41
2021/05/13 00:51:48;;;;;;;;;;;;;;;26.15;32.24;100050.78;5056782;28;779;-35
2021/05/13 00:54:14;;;;;;;;;;;;;;;26.12;32.22;100048.47;5057302;28;799;-40
2021/05/13 00:56:39;;;;;;;;;;;;;;;26.12;32.53;100043.09;5032965;28;1229;-35
2021/05/13 00:59:08;;;;;;;;;;;;;;;26.12;32.52;100050.34;5036729;28;794;-40
2021/05/13 01:04:11;;;;;;;;;;;;;;;26.14;32.34;100057.19;5037436;28;1960;-35
2021/05/13 01:06:36;;;;;;;;;;;;;;;26.17;32.45;100039.81;5019093;28;1485;-37
2021/05/13 01:09:07;;;;;;;;;;;;;;;26.20;32.10;100039.41;5019361;28;848;-37
2021/05/13 01:11:32;;;;;;;;;;;;;;;26.16;32.25;100032.72;5041255;28;928;-42
2021/05/13 01:16:58;;;;;;;;;;;;;;;26.16;32.21;100020.09;5056774;28;598;-37
2021/05/13 01:19:23;;;;;;;;;;;;;;;26.11;32.42;100019.84;5056795;28;819;-41
2021/05/13 01:21:48;;;;;;;;;;;;;;;26.15;32.26;100023.81;5056221;28;1080;-37
2021/05/13 01:24:14;;;;;;;;;;;;;;;26.15;32.33;100028.38;5038730;28;1910;-41
2021/05/13 01:26:43;;;;;;;;;;;;;;;26.16;32.20;100032.72;5050470;28;975;-42
2021/05/13 01:29:08;;;;;;;;;;;;;;;26.16;32.37;100028.19;5036167;28;814;-42
2021/05/13 01:31:33;;;;;;;;;;;;;;;26.16;32.31;100020.09;5036784;28;795;-42
2021/05/13 01:33:59;;;;;;;;;;;;;;;26.21;32.11;100014.13;5036542;28;808;-38
2021/05/13 01:36:24;;;;;;;;;;;;;;;26.17;32.33;100012.84;5042166;28;1133;-41
2021/05/13 01:38:49;;;;;;;;;;;;;;;26.20;32.18;100008.91;5056376;28;806;-40
2021/05/13 01:41:15;;;;;;;;;;;;;;;26.26;32.10;100011.66;5053899;28;1019;-42
2021/05/13 01:43:40;;;;;;;;;;;;;;;26.22;32.34;100018.50;5036542;28;1890;-35
2021/05/13 01:46:05;;;;;;;;;;;;;;;26.21;32.24;100010.59;5036666;28;748;-37
2021/05/13 01:48:30;;;;;;;;;;;;;;;26.27;32.14;100004.44;5036520;28;799;-41
2021/05/13 01:50:56;;;;;;;;;;;;;;;26.26;32.11;99995.50;5036327;28;878;-41
2021/05/13 01:53:21;;;;;;;;;;;;;;;26.23;32.33;99990.50;5036557;28;841;-35
2021/05/13 01:55:47;;;;;;;;;;;;;;;26.25;32.15;99983.06;5036442;28;783;-39
2021/05/13 01:58:12;;;;;;;;;;;;;;;26.24;32.37;99984.06;5035930;28;941;-41
2021/05/13 02:00:38;;;;;;;;;;;;;;;26.23;32.53;99985.09;5036570;28;788;-40
2021/05/13 02:03:03;;;;;;;;;;;;;;;26.23;32.27;99981.56;5036239;28;1902;-41
2021/05/13 02:05:29;;;;;;;;;;;;;;;26.16;32.49;99982.34;5036403;28;807;-36
2021/05/13 02:07:54;;;;;;;;;;;;;;;26.20;32.53;99976.56;5036580;28;846;-38
2021/05/13 02:10:19;;;;;;;;;;;;;;;26.23;32.39;99985.09;5036559;28;871;-41
2021/05/13 02:12:45;;;;;;;;;;;;;;;26.26;32.28;99989.25;5035783;28;1012;-41
2021/05/13 02:15:11;;;;;;;;;;;;;;;26.25;32.33;99990.31;5036454;28;862;-41
2021/05/13 02:17:36;;;;;;;;;;;;;;;26.24;32.63;99994.03;5036196;28;816;-40
2021/05/13 02:20:02;;;;;;;;;;;;;;;26.21;32.44;99995.25;5037005;28;1101;-36
2021/05/13 02:22:28;;;;;;;;;;;;;;;26.23;32.53;99990.50;5040807;28;725;-35
2021/05/13 02:24:53;;;;;;;;;;;;;;;26.25;32.29;99999.22;5039851;28;1914;-39
2021/05/13 02:27:18;;;;;;;;;;;;;;;26.24;32.49;99988.66;5050654;28;972;-34
2021/05/13 02:29:44;;;;;;;;;;;;;;;26.19;32.61;99994.63;5059923;28;751;-37
2021/05/13 02:32:09;;;;;;;;;;;;;;;26.25;32.45;100003.78;5060060;28;844;-36
2021/05/13 02:34:34;;;;;;;;;;;;;;;26.23;32.31;100003.97;5059639;28;800;-42
2021/05/13 02:36:59;;;;;;;;;;;;;;;26.21;32.58;100014.13;5059791;28;1219;-36
2021/05/13 02:39:25;;;;;;;;;;;;;;;26.19;32.61;100018.88;5059722;28;747;-41
2021/05/13 02:41:50;;;;;;;;;;;;;;;26.20;32.56;100033.19;5059510;28;948;-34
2021/05/13 02:44:15;;;;;;;;;;;;;;;26.22;32.56;100036.53;5059512;28;1902;-37
2021/05/13 02:46:40;;;;;;;;;;;;;;;26.20;32.41;100025.09;5059561;28;806;-40
2021/05/13 02:49:06;;;;;;;;;;;;;;;26.19;32.50;100007.25;5059703;28;819;-41
2021/05/13 02:51:31;;;;;;;;;;;;;;;25.92;32.58;100003.28;5059262;28;739;-43
2021/05/13 02:53:56;;;;;;;;;;;;;;;25.04;33.96;99994.25;5059085;28;1450;-35
2021/05/13 02:56:22;;;;;;;;;;;;;;;24.59;34.97;99996.91;5059330;28;947;-44
2021/05/13 02:58:49;;;;;;;;;;;;;;;24.57;35.23;100001.66;5059129;28;803;-40
2021/05/13 03:01:29;;;;;;;;;;;;;;;24.37;35.54;99995.97;5058823;28;788;-42
2021/05/13 03:03:55;;;;;;;;;;;;;;;24.05;36.08;99999.56;5059384;28;1901;-32
2021/05/13 03:06:20;;;;;;;;;;;;;;;23.95;35.98;99983.69;5059000;28;763;-43
2021/05/13 03:08:47;;;;;;;;;;;;;;;23.90;35.87;99987.94;5059275;28;744;-35
2021/05/13 03:11:12;;;;;;;;;;;;;;;23.80;35.72;99983.66;5058766;28;943;-35
2021/05/13 03:13:38;;;;;;;;;;;;;;;23.66;35.95;99989.75;5058716;28;782;-43
2021/05/13 03:16:03;;;;;;;;;;;;;;;23.60;36.02;99991.34;5059338;28;831;-45
2021/05/13 03:18:30;;;;;;;;;;;;;;;23.46;36.46;99995.59;5059154;28;787;-44
2021/05/13 03:21:07;;;;;;;;;;;;;;;23.39;36.70;99992.75;5058203;28;1362;-35
2021/05/13 03:23:51;;;;;;;;;;;;;;;23.27;36.89;99996.84;5059026;28;1910;-44
2021/05/13 03:26:24;;;;;;;;;;;;;;;23.16;37.42;99990.00;5058342;28;939;-34
2021/05/13 03:28:49;;;;;;;;;;;;;;;23.18;37.15;99993.38;5058295;28;808;-35
2021/05/13 03:31:14;;;;;;;;;;;;;;;23.17;37.41;99994.38;5058750;28;1041;-43
2021/05/13 03:33:40;;;;;;;;;;;;;;;23.08;37.86;99996.25;5058603;28;787;-32
2021/05/13 03:36:05;;;;;;;;;;;;;;;23.02;38.21;99995.13;5058045;28;1214;-38
2021/05/13 03:38:31;;;;;;;;;;;;;;;23.02;38.30;99992.44;5058835;28;771;-47
2021/05/13 03:40:56;;;;;;;;;;;;;;;23.05;38.69;99984.03;5059106;28;807;-45
2021/05/13 03:43:21;;;;;;;;;;;;;;;23.05;38.95;99993.94;5057502;28;1965;-46
2021/05/13 03:45:47;;;;;;;;;;;;;;;23.09;38.85;99989.88;5058307;28;774;-36
2021/05/13 03:48:12;;;;;;;;;;;;;;;23.03;39.31;99988.75;5058582;28;798;-44
2021/05/13 03:50:37;;;;;;;;;;;;;;;23.02;39.62;99988.91;5057631;28;799;-42
2021/05/13 03:53:04;;;;;;;;;;;;;;;23.06;39.66;99991.06;5059060;28;772;-32
2021/05/13 03:55:29;;;;;;;;;;;;;;;22.92;40.24;99983.75;5058235;28;811;-36
2021/05/13 03:57:57;;;;;;;;;;;;;;;23.26;39.54;99996.00;5055154;28;1272;-34
2021/05/13 04:00:29;;;;;;;;;;;;;;;23.47;39.06;99999.97;5050067;28;826;-41
2021/05/13 04:02:54;;;;;;;;;;;;;;;23.50;38.65;100004.13;5038077;28;747;-40
2021/05/13 04:05:20;;;;;;;;;;;;;;;23.49;38.68;100008.66;5037751;28;1897;-34
2021/05/13 04:07:47;;;;;;;;;;;;;;;23.43;39.12;100006.69;5038540;28;796;-39
2021/05/13 04:10:12;;;;;;;;;;;;;;;23.37;39.09;100010.91;5037841;28;836;-41
2021/05/13 04:12:38;;;;;;;;;;;;;;;23.38;39.21;100009.88;5049876;28;956;-33
2021/05/13 04:15:04;;;;;;;;;;;;;;;23.42;39.29;100016.59;5058133;28;795;-39
2021/05/13 04:17:30;;;;;;;;;;;;;;;23.41;39.45;100022.13;5058191;28;744;-34
2021/05/13 04:19:55;;;;;;;;;;;;;;;23.46;39.30;100025.13;5057303;28;1070;-34
2021/05/13 04:22:20;;;;;;;;;;;;;;;23.83;38.33;100020.88;5057720;28;786;-47
2021/05/13 04:24:45;;;;;;;;;;;;;;;24.01;37.95;100018.88;5057408;28;1972;-35
2021/05/13 04:27:11;;;;;;;;;;;;;;;23.94;38.03;100024.19;5056844;28;1034;-45
2021/05/13 04:29:36;;;;;;;;;;;;;;;24.04;37.92;100013.19;5057661;28;799;-35
2021/05/13 04:32:01;;;;;;;;;;;;;;;24.16;37.63;100011.75;5057549;28;811;-47
2021/05/13 04:34:27;;;;;;;;;;;;;;;24.26;37.19;100007.97;5057427;28;771;-41
2021/05/13 04:36:52;;;;;;;;;;;;;;;24.03;37.17;100015.03;5048440;28;1227;-47
2021/05/13 04:39:17;;;;;;;;;;;;;;;23.84;37.67;100011.81;5037070;28;794;-48
2021/05/13 04:41:42;;;;;;;;;;;;;;;24.05;37.35;100002.25;5042750;28;1037;-46
2021/05/13 04:44:08;;;;;;;;;;;;;;;24.10;37.15;100012.47;5056690;28;1902;-44
2021/05/13 04:46:34;;;;;;;;;;;;;;;24.00;37.11;100015.38;5056910;28;791;-43
2021/05/13 04:51:31;;;;;;;;;;;;;;;24.12;37.00;100023.03;5056867;28;613;-46
2021/05/13 04:53:57;;;;;;;;;;;;;;;24.13;37.06;100030.91;5056764;28;796;-40
2021/05/13 04:56:22;;;;;;;;;;;;;;;24.26;36.65;100026.78;5056145;28;968;-46
2021/05/13 04:58:48;;;;;;;;;;;;;;;24.30;36.63;100025.41;5056796;28;799;-43
2021/05/13 05:01:13;;;;;;;;;;;;;;;24.34;36.57;100022.19;5056643;28;843;-46
2021/05/13 05:03:39;;;;;;;;;;;;;;;24.40;36.54;100025.16;5056188;28;1966;-45
2021/05/13 05:06:04;;;;;;;;;;;;;;;24.45;36.24;100020.91;5056325;28;748;-36
2021/05/13 05:08:30;;;;;;;;;;;;;;;24.58;36.02;100024.81;5038447;28;972;-47
2021/05/13 05:10:55;;;;;;;;;;;;;;;24.60;35.88;100021.94;5056257;28;522;-41
2021/05/13 05:13:20;;;;;;;;;;;;;;;24.48;36.32;100021.56;5056434;28;964;-47
2021/05/13 05:15:46;;;;;;;;;;;;;;;24.75;35.69;100021.97;5056684;28;788;-34
2021/05/13 05:18:21;;;;;;;;;;;;;;;24.73;35.83;100016.75;5056440;28;851;-52
2021/05/13 05:20:47;;;;;;;;;;;;;;;24.61;36.07;100016.38;5056476;28;1542;-35
2021/05/13 05:23:12;;;;;;;;;;;;;;;24.70;36.09;100019.81;5056734;28;1914;-48
2021/05/13 05:25:40;;;;;;;;;;;;;;;24.68;36.11;100027.25;5056505;28;760;-44
2021/05/13 05:28:05;;;;;;;;;;;;;;;24.69;36.12;100029.75;5038267;28;1038;-38
2021/05/13 05:30:34;;;;;;;;;;;;;;;24.72;36.27;100028.56;5036766;28;760;-52
2021/05/13 05:33:02;;;;;;;;;;;;;;;24.78;36.32;100026.97;5036305;28;866;-49
2021/05/13 05:35:28;;;;;;;;;;;;;;;24.86;35.91;100028.75;5036589;28;736;-37
2021/05/13 05:37:53;;;;;;;;;;;;;;;24.83;35.62;100021.88;5054032;28;1133;-47
2021/05/13 05:40:19;;;;;;;;;;;;;;;24.92;35.78;100017.28;5056117;28;829;-39
2021/05/13 05:42:44;;;;;;;;;;;;;;;24.94;35.32;100016.06;5041056;28;967;-49
2021/05/13 05:45:10;;;;;;;;;;;;;;;25.00;35.24;100017.19;5036146;28;1960;-46
2021/05/13 05:47:35;;;;;;;;;;;;;;;24.96;35.50;100028.50;5036197;28;945;-41
2021/05/13 05:50:00;;;;;;;;;;;;;;;24.87;35.68;100041.16;5036388;28;811;-35
2021/05/13 05:52:26;;;;;;;;;;;;;;;24.92;35.47;100034.22;5036194;28;1250;-48
2021/05/13 05:54:51;;;;;;;;;;;;;;;24.87;35.70;100033.09;5046164;28;1151;-47
2021/05/13 05:57:16;;;;;;;;;;;;;;;24.92;35.80;100028.03;5052641;28;1198;-43
2021/05/13 05:59:42;;;;;;;;;;;;;;;24.97;35.84;100036.38;5060165;28;842;-37
2021/05/13 06:02:07;;;;;;;;;;;;;;;25.02;35.49;100038.50;5059416;28;1230;-43
2021/05/13 06:04:32;;;;;;;;;;;;;;;25.09;35.38;100043.97;5059543;28;1887;-37
2021/05/13 06:06:58;;;;;;;;;;;;;;;25.26;35.45;100055.38;5060297;28;764;-48
2021/05/13 06:09:23;;;;;;;;;;;;;;;25.31;35.43;100048.41;5059665;28;737;-48
2021/05/13 06:11:48;;;;;;;;;;;;;;;25.36;35.32;100047.84;5052421;28;960;-38
2021/05/13 06:14:13;;;;;;;;;;;;;;;25.51;35.05;100055.03;5039683;28;915;-34
2021/05/13 06:16:39;;;;;;;;;;;;;;;25.48;35.21;100045.50;5039843;28;767;-39
2021/05/13 06:19:04;;;;;;;;;;;;;;;25.57;35.12;100048.94;5039946;28;764;-33
2021/05/13 06:21:29;;;;;;;;;;;;;;;25.70;35.03;100045.56;5039928;28;1278;-47
2021/05/13 06:23:59;;;;;;;;;;;;;;;25.73;35.08;100053.28;5039104;28;1967;-45
2021/05/13 06:26:24;;;;;;;;;;;;;;;25.73;35.01;100055.13;5043094;28;1027;-47
2021/05/13 06:28:50;;;;;;;;;;;;;;;25.62;35.12;100057.28;5040912;28;1406;-49
2021/05/13 06:31:15;;;;;;;;;;;;;;;25.68;35.10;100053.00;5059284;28;819;-34
2021/05/13 06:33:40;;;;;;;;;;;;;;;25.69;34.82;100052.00;5059197;28;835;-46
2021/05/13 06:36:06;;;;;;;;;;;;;;;25.60;35.17;100048.53;5059478;28;1167;-46
2021/05/13 06:38:31;;;;;;;;;;;;;;;25.61;35.24;100046.69;5074259;28;1452;-42
2021/05/13 06:40:57;;;;;;;;;;;;;;;25.56;35.44;100055.31;5058402;28;795;-46
2021/05/13 06:43:22;;;;;;;;;;;;;;;25.59;35.11;100044.16;5059177;28;1898;-32
2021/05/13 06:45:48;;;;;;;;;;;;;;;25.64;35.25;100047.16;5058634;28;745;-45
2021/05/13 06:48:13;;;;;;;;;;;;;;;25.71;35.26;100043.72;5057555;28;1076;-52
2021/05/13 06:50:38;;;;;;;;;;;;;;;25.69;35.09;100041.22;5059359;28;751;-51
2021/05/13 06:53:03;;;;;;;;;;;;;;;25.71;35.09;100035.63;5056647;28;950;-46
2021/05/13 06:55:30;;;;;;;;;;;;;;;25.76;34.98;100038.56;5035846;28;846;-38
2021/05/13 06:57:56;;;;;;;;;;;;;;;25.86;34.83;100044.47;5053095;28;931;-37
2021/05/13 07:00:21;;;;;;;;;;;;;;;25.88;34.61;100052.38;5058852;28;881;-48
2021/05/13 07:02:47;;;;;;;;;;;;;;;25.82;34.92;100045.06;5058417;28;776;-48
2021/05/13 07:05:13;;;;;;;;;;;;;;;25.87;34.69;100031.84;5059152;28;1906;-45
2021/05/13 07:07:40;;;;;;;;;;;;;;;25.92;34.53;100041.00;5058883;28;843;-47
2021/05/13 07:10:05;;;;;;;;;;;;;;;25.75;35.08;100035.06;5058872;28;845;-41
2021/05/13 07:12:30;;;;;;;;;;;;;;;25.85;34.78;100032.06;5057951;28;931;-34
2021/05/13 07:14:56;;;;;;;;;;;;;;;25.83;34.81;100028.72;5058122;28;804;-33
2021/05/13 07:17:21;;;;;;;;;;;;;;;25.91;34.74;100041.22;5057870;28;834;-38
2021/05/13 07:19:47;;;;;;;;;;;;;;;25.83;35.04;100041.34;5058719;28;1085;-51
2021/05/13 07:22:12;;;;;;;;;;;;;;;25.86;34.86;100039.09;5058654;28;828;-49
2021/05/13 07:24:37;;;;;;;;;;;;;;;25.83;34.98;100039.47;5058443;28;1995;-46
2021/05/13 07:27:09;;;;;;;;;;;;;;;25.84;34.90;100060.00;5058156;28;975;-43
2021/05/13 07:29:34;;;;;;;;;;;;;;;25.84;35.02;100069.97;5058750;28;951;-45
2021/05/13 07:31:59;;;;;;;;;;;;;;;25.80;35.00;100069.50;5058223;28;755;-39
2021/05/13 07:34:24;;;;;;;;;;;;;;;25.78;34.92;100060.78;5058439;28;829;-36
2021/05/13 07:36:50;;;;;;;;;;;;;;;25.80;35.04;100059.56;5049724;28;1072;-33
2021/05/13 07:39:16;;;;;;;;;;;;;;;25.79;35.12;100059.75;5037858;28;736;-38
2021/05/13 07:41:41;;;;;;;;;;;;;;;25.88;34.83;100052.38;5044050;28;967;-44
2021/05/13 07:44:06;;;;;;;;;;;;;;;26.00;34.55;100056.25;5058332;28;1964;-33
2021/05/13 07:46:37;;;;;;;;;;;;;;;25.89;34.29;100056.75;5057898;28;791;-48
2021/05/13 07:49:02;;;;;;;;;;;;;;;25.52;34.89;100040.56;5058189;28;963;-38
2021/05/13 07:51:27;;;;;;;;;;;;;;;25.29;34.74;100030.78;5039628;28;828;-44
2021/05/13 07:53:53;;;;;;;;;;;;;;;25.22;34.72;100037.94;5057493;28;961;-45
2021/05/13 07:56:18;;;;;;;;;;;;;;;25.47;35.03;100043.00;5057786;28;955;-44
2021/05/13 07:58:43;;;;;;;;;;;;;;;25.13;35.44;100034.50;5058107;28;768;-46
2021/05/13 08:01:08;;;;;;;;;;;;;;;25.27;35.09;100024.75;5057522;28;956;-41
2021/05/13 08:03:34;;;;;;;;;;;;;;;25.06;34.97;100026.34;5058208;28;1910;-32
2021/05/13 08:05:59;;;;;;;;;;;;;;;25.25;35.48;100032.16;5058020;28;819;-44
2021/05/13 08:08:24;;;;;;;;;;;;;;;25.52;36.16;100038.72;5057217;28;1417;-42
2021/05/13 08:10:49;;;;;;;;;;;;;;;25.77;35.71;100040.25;5057128;28;990;-43
2021/05/13 08:13:15;;;;;;;;;;;;;;;25.98;35.05;100050.19;5054867;28;1007;-42
2021/05/13 08:15:41;;;;;;;;;;;;;;;26.07;34.41;100042.84;5042242;28;1190;-43
2021/05/13 08:18:06;;;;;;;;;;;;;;;26.13;34.42;100046.59;5037172;28;858;-33
2021/05/13 08:20:31;;;;;;;;;;;;;;;26.26;34.18;100041.31;5037164;28;1268;-35
2021/05/13 08:22:57;;;;;;;;;;;;;;;26.32;33.95;100036.19;5037353;28;913;-42
2021/05/13 08:25:22;;;;;;;;;;;;;;;26.35;33.86;100038.53;5037260;28;1902;-45
2021/05/13 08:27:47;;;;;;;;;;;;;;;26.47;33.75;100038.81;5037216;28;999;-44
2021/05/13 08:30:13;;;;;;;;;;;;;;;26.49;33.53;100024.09;5037336;28;780;-45
2021/05/13 08:32:38;;;;;;;;;;;;;;;26.48;33.88;100025.16;5037952;28;784;-44
2021/05/13 08:35:04;;;;;;;;;;;;;;;26.51;33.71;100023.91;5037534;28;803;-32
2021/05/13 08:37:29;;;;;;;;;;;;;;;26.53;33.75;100033.47;5035749;28;1200;-31
2021/05/13 08:39:55;;;;;;;;;;;;;;;26.55;33.83;100044.06;5037646;28;743;-48
2021/05/13 08:42:20;;;;;;;;;;;;;;;26.54;33.66;100039.72;5036629;28;1019;-46
2021/05/13 08:44:45;;;;;;;;;;;;;;;26.59;33.58;100034.53;5036571;28;1961;-39
2021/05/13 08:47:11;;;;;;;;;;;;;;;26.67;33.40;100043.53;5037290;28;780;-47
2021/05/13 08:49:36;;;;;;;;;;;;;;;26.67;33.63;100038.97;5037230;28;825;-36
2021/05/13 08:52:04;;;;;;;;;;;;;;;26.74;33.55;100030.94;5036365;28;827;-36
2021/05/13 08:54:30;;;;;;;;;;;;;;;26.69;33.55;100022.59;5037267;28;855;-50
2021/05/13 08:56:55;;;;;;;;;;;;;;;26.68;33.63;100023.59;5036214;28;952;-43
2021/05/13 08:59:21;;;;;;;;;;;;;;;26.69;33.38;100017.19;5036837;28;852;-46
2021/05/13 09:01:53;;;;;;;;;;;;;;;26.67;33.53;100022.78;5036886;28;784;-37
2021/05/13 09:04:18;;;;;;;;;;;;;;;26.63;33.77;100024.19;5036834;28;1951;-39
2021/05/13 09:06:45;;;;;;;;;;;;;;;26.69;33.64;100023.44;5036320;28;816;-33
2021/05/13 09:09:11;;;;;;;;;;;;;;;26.76;33.37;100012.66;5036965;28;906;-47
2021/05/13 09:11:46;;;;;;;;;;;;;;;26.71;33.51;100017.84;5036226;28;968;-36
2021/05/13 09:14:11;;;;;;;;;;;;;;;26.60;33.40;100019.19;5036581;28;851;-35
2021/05/13 09:16:37;;;;;;;;;;;;;;;26.61;33.78;100018.19;5036919;28;807;-49
2021/05/13 09:19:18;;;;;;;;;;;;;;;26.64;33.64;100010.50;5036183;28;835;-50
2021/05/13 09:22:10;;;;;;;;;;;;;;;26.71;33.68;100009.75;5053175;28;1271;-51
2021/05/13 09:24:49;;;;;;;;;;;;;;;26.75;33.38;100014.53;5052891;28;1971;-39
2021/05/13 09:27:14;;;;;;;;;;;;;;;26.81;33.50;100014.78;5045882;28;1029;-50
2021/05/13 09:29:39;;;;;;;;;;;;;;;26.86;33.52;100015.81;5036240;28;811;-52
2021/05/13 09:32:18;;;;;;;;;;;;;;;26.88;33.35;100011.06;5033752;28;741;-39
2021/05/13 09:34:44;;;;;;;;;;;;;;;26.87;33.18;100016.66;5036545;28;731;-33
2021/05/13 09:37:09;;;;;;;;;;;;;;;27.04;33.12;100019.06;5047282;28;1294;-46
2021/05/13 09:39:34;;;;;;;;;;;;;;;27.01;33.34;100018.44;5053107;28;873;-42
2021/05/13 09:42:00;;;;;;;;;;;;;;;27.10;32.92;100016.41;5042730;28;1055;-37
2021/05/13 09:44:30;;;;;;;;;;;;;;;27.14;33.08;100014.13;5049621;28;1965;-30
2021/05/13 09:46:55;;;;;;;;;;;;;;;27.14;33.04;100016.84;5046104;28;1040;-47
2021/05/13 09:49:20;;;;;;;;;;;;;;;27.11;33.28;100006.44;5046352;28;1222;-51
2021/05/13 09:51:46;;;;;;;;;;;;;;;27.14;33.06;100017.66;5050935;28;1301;-49
2021/05/13 09:54:17;;;;;;;;;;;;;;;27.14;32.97;100017.66;5053115;28;835;-50
2021/05/13 09:56:49;;;;;;;;;;;;;;;27.13;33.10;100013.31;5049109;28;952;-45
2021/05/13 09:59:20;;;;;;;;;;;;;;;27.17;33.16;100008.34;5044260;28;933;-47
2021/05/13 10:01:46;;;;;;;;;;;;;;;27.20;32.84;100013.31;5055462;28;825;-46
2021/05/13 10:04:11;;;;;;;;;;;;;;;27.25;33.14;100018.97;5036391;28;1975;-40
2021/05/13 10:06:37;;;;;;;;;;;;;;;27.32;32.57;100012.75;5055191;28;803;-49
2021/05/13 10:09:03;;;;;;;;;;;;;;;27.38;32.56;100025.44;5051793;28;897;-44
2021/05/13 10:11:30;;;;;;;;;;;;;;;27.34;32.81;100022.28;5049082;28;841;-45
2021/05/13 10:13:56;;;;;;;;;;;;;;;27.34;32.60;100016.88;5035050;28;800;-44
2021/05/13 10:16:21;;;;;;;;;;;;;;;27.29;32.85;100007.75;5030814;28;886;-51
2021/05/13 10:18:47;;;;;;;;;;;;;;;27.23;32.88;100020.19;5052842;28;873;-49
2021/05/13 10:21:14;;;;;;;;;;;;;;;27.31;32.96;100017.31;5031633;28;1149;-49
2021/05/13 10:23:43;;;;;;;;;;;;;;;27.32;32.64;100010.03;5034309;28;1962;-48
2021/05/13 10:26:27;;;;;;;;;;;;;;;27.29;33.05;100014.00;5035267;28;834;-51
2021/05/13 10:28:52;;;;;;;;;;;;;;;27.26;32.96;100009.81;5033858;28;756;-46
2021/05/13 10:31:18;;;;;;;;;;;;;;;27.33;32.77;100009.84;5035312;28;804;-44
2021/05/13 10:33:44;;;;;;;;;;;;;;;27.40;32.76;100004.47;5028806;28;1291;-38
2021/05/13 10:36:10;;;;;;;;;;;;;;;27.42;32.75;100006.97;5036825;28;1248;-38
2021/05/13 10:38:43;;;;;;;;;;;;;;;27.39;33.17;100003.63;5037285;28;1263;-47
2021/05/13 10:41:27;;;;;;;;;;;;;;;27.51;32.75;100000.31;5051181;28;1031;-31
2021/05/13 10:43:53;;;;;;;;;;;;;;;27.47;32.73;100004.47;5050548;28;1903;-46
2021/05/13 10:46:27;;;;;;;;;;;;;;;27.50;32.85;100009.47;5058189;28;945;-48
2021/05/13 10:48:53;;;;;;;;;;;;;;;27.47;32.96;100001.78;5058298;28;885;-30
2021/05/13 10:51:25;;;;;;;;;;;;;;;27.44;32.81;100008.44;5039330;28;1458;-46
2021/05/13 10:53:50;;;;;;;;;;;;;;;27.51;32.68;100003.03;5039824;28;873;-46
2021/05/13 10:56:16;;;;;;;;;;;;;;;27.41;33.16;99992.59;5037939;28;1160;-42
2021/05/13 10:59:01;;;;;;;;;;;;;;;27.50;32.73;99995.97;5049956;28;1378;-43
2021/05/13 11:01:32;;;;;;;;;;;;;;;27.50;32.69;99998.66;5057892;28;1167;-48
2021/05/13 11:04:16;;;;;;;;;;;;;;;27.50;32.61;99996.81;5058048;28;1963;-41
2021/05/13 11:06:42;;;;;;;;;;;;;;;27.46;33.03;100005.53;5057100;28;1010;-46
2021/05/13 11:09:08;;;;;;;;;;;;;;;27.44;32.88;100000.34;5054715;28;1009;-47
2021/05/13 11:11:52;;;;;;;;;;;;;;;27.48;32.78;100001.56;5053746;28;896;-51
2021/05/13 11:14:20;;;;;;;;;;;;;;;27.56;32.73;100000.53;5020684;28;1437;-45
2021/05/13 11:16:49;;;;;;;;;;;;;;;27.58;32.83;99997.63;5052740;28;881;-46
2021/05/13 11:19:17;;;;;;;;;;;;;;;27.57;32.52;99993.28;5057217;28;847;-52
2021/05/13 11:21:58;;;;;;;;;;;;;;;27.60;33.00;100001.81;5057436;28;1195;-42
2021/05/13 11:24:29;;;;;;;;;;;;;;;27.56;32.78;99997.03;5043435;28;1970;-40
2021/05/13 11:26:55;;;;;;;;;;;;;;;27.62;32.87;99991.66;5043094;28;1170;-34
2021/05/13 11:29:20;;;;;;;;;;;;;;;27.63;32.88;99998.69;5047642;28;977;-48
2021/05/13 11:31:49;;;;;;;;;;;;;;;27.58;32.82;99984.13;5055571;28;888;-32
2021/05/13 11:34:15;;;;;;;;;;;;;;;27.58;32.80;99990.38;5058162;28;901;-46
2021/05/13 11:36:40;;;;;;;;;;;;;;;27.62;32.46;99988.94;5051638;28;929;-40
2021/05/13 11:39:12;;;;;;;;;;;;;;;27.62;32.63;99991.66;5057888;28;1440;-37
2021/05/13 11:41:37;;;;;;;;;;;;;;;27.59;32.70;99999.31;5050199;28;857;-41
2021/05/13 11:44:02;;;;;;;;;;;;;;;27.56;32.65;99999.72;5045369;28;1906;-49
2021/05/13 11:46:28;;;;;;;;;;;;;;;27.53;33.12;99998.25;5051935;28;965;-46
2021/05/13 11:48:53;;;;;;;;;;;;;;;27.50;33.10;99988.69;5058168;28;806;-35
2021/05/13 11:51:29;;;;;;;;;;;;;;;27.58;32.95;99981.44;5056301;28;846;-35
2021/05/13 11:53:55;;;;;;;;;;;;;;;27.62;32.93;99980.84;5056509;28;869;-41
2021/05/13 11:56:21;;;;;;;;;;;;;;;27.61;32.68;99978.34;5054399;28;830;-46
2021/05/13 11:58:47;;;;;;;;;;;;;;;27.60;32.56;99976.66;5053006;28;874;-48
2021/05/13 12:01:18;;;;;;;;;;;;;;;27.61;32.69;99971.06;5057184;28;821;-38
2021/05/13 12:03:44;;;;;;;;;;;;;;;27.58;32.93;99963.34;5056964;28;1919;-49
2021/05/13 12:06:09;;;;;;;;;;;;;;;27.57;32.84;99966.25;5055908;28;877;-37
2021/05/13 12:08:37;;;;;;;;;;;;;;;27.57;32.74;99969.81;5057056;28;862;-49
2021/05/13 12:11:03;;;;;;;;;;;;;;;27.63;32.27;99968.13;5055555;28;894;-47
2021/05/13 12:13:29;;;;;;;;;;;;;;;27.59;32.84;99975.00;5071342;28;1215;-37
2021/05/13 12:16:01;;;;;;;;;;;;;;;27.58;32.74;99970.63;5057349;28;824;-42
2021/05/13 12:18:26;;;;;;;;;;;;;;;27.59;33.00;99965.00;5056261;28;817;-38
2021/05/13 12:20:52;;;;;;;;;;;;;;;27.50;32.79;99967.09;5056057;28;1044;-35
2021/05/13 12:23:17;;;;;;;;;;;;;;;27.51;33.06;99965.19;5035787;28;861;-39
2021/05/13 12:25:42;;;;;;;;;;;;;;;27.55;32.71;99973.75;5038315;28;1899;-43
2021/05/13 12:28:08;;;;;;;;;;;;;;;27.56;32.73;99973.53;5049034;28;859;-34
2021/05/13 12:30:34;;;;;;;;;;;;;;;27.61;32.67;99968.34;5057063;28;970;-43
2021/05/13 12:32:59;;;;;;;;;;;;;;;27.55;32.78;99958.38;5056479;28;857;-45
2021/05/13 12:35:32;;;;;;;;;;;;;;;27.53;33.00;99956.94;5056505;28;876;-55
2021/05/13 12:38:11;;;;;;;;;;;;;;;27.50;32.98;99958.16;5056623;28;1116;-53
2021/05/13 12:40:36;;;;;;;;;;;;;;;27.44;33.16;99959.81;5056695;28;821;-50
2021/05/13 12:43:08;;;;;;;;;;;;;;;27.51;32.78;99952.53;5049377;28;872;-52
2021/05/13 12:45:40;;;;;;;;;;;;;;;27.43;32.88;99947.34;5057073;28;1898;-51
2021/05/13 12:48:06;;;;;;;;;;;;;;;27.47;33.12;99939.66;5056419;28;857;-52
2021/05/13 12:50:32;;;;;;;;;;;;;;;27.43;33.00;99941.09;5057016;28;814;-53
2021/05/13 12:53:07;;;;;;;;;;;;;;;27.47;32.92;99929.69;5056765;28;1611;-39
2021/05/13 12:55:37;;;;;;;;;;;;;;;27.48;33.13;99930.50;5055222;28;942;-36
2021/05/13 12:58:07;;;;;;;;;;;;;;;27.43;33.11;99938.38;5051883;28;1011;-45
2021/05/13 13:00:32;;;;;;;;;;;;;;;27.47;32.90;99932.41;5056277;28;866;-42
2021/05/13 13:03:08;;;;;;;;;;;;;;;27.55;32.88;99950.25;5055363;28;933;-40